Friday, January 19, 2018, 7:36 AM GMT
Back to Local

CXMY, Malay Falls , N. S.

Location: , , Canada Lat: 44.983
Local Time: 7:36 AM GMT ( 7:36 GMT) Lon: -62.483
Time Zone: GMT Elev: 131 ft

Show me the last for .
Show Coded

Time T Td Feel RH Dir Speed Gust Alt SLP Vis Weather Sky Remarks
2018-01-19 07:00 20 19 - 92 - - - - - 0 None
2018-01-19 06:00 22 20 - 89 - - - - - 0 None
2018-01-19 05:00 23 21 - 90 - - - - - 0 None
2018-01-19 04:00 26 22 - 85 - - - - - 0 None
2018-01-19 03:00 26 23 - 89 - - - - - 0 None
2018-01-19 02:00 28 26 - 94 - - - - - 0 None
2018-01-19 01:00 29 29 - 97 - - - - - 0 None
2018-01-19 00:00 29 29 - 99 - - - - - 0 None
2018-01-18 23:00 29 29 - 99 - - - - - 0 None
2018-01-18 22:00 29 29 - 97 - - - - - 0 None
2018-01-18 21:00 30 30 - 99 - - - - - 0 None
2018-01-18 20:00 32 33 - 104 - - - - - 0 None
2018-01-18 19:00 32 31 - 98 - - - - - 0 None
2018-01-18 18:00 32 32 - 99 - - - - - 0 1-hr Precip Total: 0.05"
2018-01-18 17:00 31 31 - 97 - - - - - 0 None
2018-01-18 16:00 30 29 - 97 - - - - - 0 None
2018-01-18 15:00 29 29 - 98 - - - - - 0 None
2018-01-18 14:00 29 29 - 99 - - - - - 0 None
2018-01-18 13:00 29 29 - 99 - - - - - 0 None
2018-01-18 12:00 29 29 - 100 - - - - - 0 None
2018-01-18 11:00 29 31 - 107 - - - - - 0 None
2018-01-18 10:00 31 29 - 93 - - - - - 0 None
2018-01-18 09:00 29 30 - 101 - - - - - 0 None
2018-01-18 08:00 30 30 - 101 - - - - - 0 None

Support USWX by starting your Amazon purchase here.